sensor_id;sensor_type;location;lat;lon;timestamp;temperature;humidity
27707;DHT22;36332;51.384;0.040;2022-09-09T00:00:44;16.40;99.90
27707;DHT22;36332;51.384;0.040;2022-09-09T00:08:32;16.40;99.90
27707;DHT22;36332;51.384;0.040;2022-09-09T00:21:26;16.30;99.90
27707;DHT22;36332;51.384;0.040;2022-09-09T00:23:57;16.20;99.90
27707;DHT22;36332;51.384;0.040;2022-09-09T00:26:38;16.70;99.90
27707;DHT22;36332;51.384;0.040;2022-09-09T00:32:16;16.70;99.90
27707;DHT22;36332;51.384;0.040;2022-09-09T00:37:24;16.70;99.90
27707;DHT22;36332;51.384;0.040;2022-09-09T00:39:57;16.60;99.90
27707;DHT22;36332;51.384;0.040;2022-09-09T00:42:40;16.50;99.90
27707;DHT22;36332;51.384;0.040;2022-09-09T00:53:36;16.30;99.90
27707;DHT22;36332;51.384;0.040;2022-09-09T01:01:40;15.80;99.90
27707;DHT22;36332;51.384;0.040;2022-09-09T01:04:13;16.50;99.90
27707;DHT22;36332;51.384;0.040;2022-09-09T01:06:48;16.20;99.90
27707;DHT22;36332;51.384;0.040;2022-09-09T01:12:25;16.20;99.90
27707;DHT22;36332;51.384;0.040;2022-09-09T01:15:17;16.40;99.90
27707;DHT22;36332;51.384;0.040;2022-09-09T01:18:09;16.60;99.90
27707;DHT22;36332;51.384;0.040;2022-09-09T01:24:04;16.40;99.90
27707;DHT22;36332;51.384;0.040;2022-09-09T01:26:56;16.10;99.90
27707;DHT22;36332;51.384;0.040;2022-09-09T01:29:26;16.40;99.90
27707;DHT22;36332;51.384;0.040;2022-09-09T01:31:59;14.70;99.90
27707;DHT22;36332;51.384;0.040;2022-09-09T01:34:38;16.20;99.90
27707;DHT22;36332;51.384;0.040;2022-09-09T01:37:08;16.10;99.90
27707;DHT22;36332;51.384;0.040;2022-09-09T01:39:40;15.80;99.90
27707;DHT22;36332;51.384;0.040;2022-09-09T01:42:14;16.20;99.90
27707;DHT22;36332;51.384;0.040;2022-09-09T01:44:42;16.30;99.90
27707;DHT22;36332;51.384;0.040;2022-09-09T01:47:10;16.80;99.90
27707;DHT22;36332;51.384;0.040;2022-09-09T01:50:02;16.00;99.90
27707;DHT22;36332;51.384;0.040;2022-09-09T01:52:31;16.30;99.90
27707;DHT22;36332;51.384;0.040;2022-09-09T01:55:01;16.30;99.90
27707;DHT22;36332;51.384;0.040;2022-09-09T02:00:30;16.20;99.90
27707;DHT22;36332;51.384;0.040;2022-09-09T02:03:08;16.40;99.90
27707;DHT22;36332;51.384;0.040;2022-09-09T02:13:40;16.20;99.90
27707;DHT22;36332;51.384;0.040;2022-09-09T02:16:26;16.70;99.90
27707;DHT22;36332;51.384;0.040;2022-09-09T02:19:03;16.60;99.90
27707;DHT22;36332;51.384;0.040;2022-09-09T02:21:46;15.50;99.90
27707;DHT22;36332;51.384;0.040;2022-09-09T02:24:16;16.20;99.90
27707;DHT22;36332;51.384;0.040;2022-09-09T02:26:54;16.20;99.90
27707;DHT22;36332;51.384;0.040;2022-09-09T02:29:29;16.60;99.90
27707;DHT22;36332;51.384;0.040;2022-09-09T02:32:01;16.40;99.90
27707;DHT22;36332;51.384;0.040;2022-09-09T02:34:36;16.40;99.90
27707;DHT22;36332;51.384;0.040;2022-09-09T02:37:08;16.50;99.90
27707;DHT22;36332;51.384;0.040;2022-09-09T02:39:39;16.60;99.90
27707;DHT22;36332;51.384;0.040;2022-09-09T02:42:10;16.40;99.90
27707;DHT22;36332;51.384;0.040;2022-09-09T02:44:38;16.70;99.90
27707;DHT22;36332;51.384;0.040;2022-09-09T02:47:30;16.50;99.90
27707;DHT22;36332;51.384;0.040;2022-09-09T02:53:17;16.40;99.90
27707;DHT22;36332;51.384;0.040;2022-09-09T02:55:47;16.10;99.90
27707;DHT22;36332;51.384;0.040;2022-09-09T02:58:18;17.30;99.90
27707;DHT22;36332;51.384;0.040;2022-09-09T03:03:26;16.10;99.90
27707;DHT22;36332;51.384;0.040;2022-09-09T03:05:55;16.50;99.90
27707;DHT22;36332;51.384;0.040;2022-09-09T03:08:26;17.00;99.90
27707;DHT22;36332;51.384;0.040;2022-09-09T03:10:58;16.50;99.90
27707;DHT22;36332;51.384;0.040;2022-09-09T03:13:28;16.30;99.90
27707;DHT22;36332;51.384;0.040;2022-09-09T03:15:55;16.70;99.90
27707;DHT22;36332;51.384;0.040;2022-09-09T03:18:23;16.40;99.90
27707;DHT22;36332;51.384;0.040;2022-09-09T03:20:53;16.30;99.90
27707;DHT22;36332;51.384;0.040;2022-09-09T03:23:22;16.60;99.90
27707;DHT22;36332;51.384;0.040;2022-09-09T03:28:26;16.20;99.90
27707;DHT22;36332;51.384;0.040;2022-09-09T03:31:01;16.50;99.90
27707;DHT22;36332;51.384;0.040;2022-09-09T03:33:34;16.30;99.90
27707;DHT22;36332;51.384;0.040;2022-09-09T03:36:04;16.30;99.90
27707;DHT22;36332;51.384;0.040;2022-09-09T03:38:32;15.80;99.90
27707;DHT22;36332;51.384;0.040;2022-09-09T03:41:01;16.30;99.90
27707;DHT22;36332;51.384;0.040;2022-09-09T03:43:30;16.10;99.90
27707;DHT22;36332;51.384;0.040;2022-09-09T03:45:58;16.30;99.90
27707;DHT22;36332;51.384;0.040;2022-09-09T03:48:27;16.00;99.90
27707;DHT22;36332;51.384;0.040;2022-09-09T03:50:56;16.20;99.90
27707;DHT22;36332;51.384;0.040;2022-09-09T03:53:26;16.60;99.90
27707;DHT22;36332;51.384;0.040;2022-09-09T03:55:55;16.30;99.90
27707;DHT22;36332;51.384;0.040;2022-09-09T04:01:13;14.40;99.90
27707;DHT22;36332;51.384;0.040;2022-09-09T04:03:43;16.20;99.90
27707;DHT22;36332;51.384;0.040;2022-09-09T04:06:13;16.30;99.90
27707;DHT22;36332;51.384;0.040;2022-09-09T04:08:45;17.30;99.90
27707;DHT22;36332;51.384;0.040;2022-09-09T04:11:15;16.40;99.90
27707;DHT22;36332;51.384;0.040;2022-09-09T04:13:44;15.70;99.90
27707;DHT22;36332;51.384;0.040;2022-09-09T04:16:13;16.30;99.90
27707;DHT22;36332;51.384;0.040;2022-09-09T04:18:43;16.70;99.90
27707;DHT22;36332;51.384;0.040;2022-09-09T04:23:40;16.10;99.90
27707;DHT22;36332;51.384;0.040;2022-09-09T04:26:09;16.50;99.90
27707;DHT22;36332;51.384;0.040;2022-09-09T04:28:37;16.20;99.90
27707;DHT22;36332;51.384;0.040;2022-09-09T04:31:17;16.30;99.90
27707;DHT22;36332;51.384;0.040;2022-09-09T04:33:47;16.00;99.90
27707;DHT22;36332;51.384;0.040;2022-09-09T04:36:16;16.20;99.90
27707;DHT22;36332;51.384;0.040;2022-09-09T04:38:47;16.30;99.90
27707;DHT22;36332;51.384;0.040;2022-09-09T04:41:17;16.20;99.90
27707;DHT22;36332;51.384;0.040;2022-09-09T04:43:48;16.30;99.90
27707;DHT22;36332;51.384;0.040;2022-09-09T04:46:17;16.40;99.90
27707;DHT22;36332;51.384;0.040;2022-09-09T04:48:48;16.40;99.90
27707;DHT22;36332;51.384;0.040;2022-09-09T04:51:17;16.20;99.90
27707;DHT22;36332;51.384;0.040;2022-09-09T04:53:48;16.30;99.90
27707;DHT22;36332;51.384;0.040;2022-09-09T04:56:18;16.70;99.90
27707;DHT22;36332;51.384;0.040;2022-09-09T04:58:54;16.30;99.90
27707;DHT22;36332;51.384;0.040;2022-09-09T05:01:32;16.10;99.90
27707;DHT22;36332;51.384;0.040;2022-09-09T05:04:03;16.40;99.90
27707;DHT22;36332;51.384;0.040;2022-09-09T05:09:04;15.80;99.90
27707;DHT22;36332;51.384;0.040;2022-09-09T05:11:33;16.50;99.90
27707;DHT22;36332;51.384;0.040;2022-09-09T05:14:17;16.00;99.90
27707;DHT22;36332;51.384;0.040;2022-09-09T05:16:45;16.50;99.90
27707;DHT22;36332;51.384;0.040;2022-09-09T05:19:15;15.20;99.90
27707;DHT22;36332;51.384;0.040;2022-09-09T05:24:24;15.60;99.90
27707;DHT22;36332;51.384;0.040;2022-09-09T05:26:54;16.70;99.90
27707;DHT22;36332;51.384;0.040;2022-09-09T05:29:25;17.00;99.90
27707;DHT22;36332;51.384;0.040;2022-09-09T05:31:56;16.00;99.90
27707;DHT22;36332;51.384;0.040;2022-09-09T05:34:24;16.30;99.90
27707;DHT22;36332;51.384;0.040;2022-09-09T05:36:53;16.60;99.90
27707;DHT22;36332;51.384;0.040;2022-09-09T05:39:22;16.30;99.90
27707;DHT22;36332;51.384;0.040;2022-09-09T05:41:51;15.60;99.90
27707;DHT22;36332;51.384;0.040;2022-09-09T05:44:18;16.30;99.90
27707;DHT22;36332;51.384;0.040;2022-09-09T05:46:46;15.90;99.90
27707;DHT22;36332;51.384;0.040;2022-09-09T05:49:15;16.60;99.90
27707;DHT22;36332;51.384;0.040;2022-09-09T05:51:43;16.00;99.90
27707;DHT22;36332;51.384;0.040;2022-09-09T05:54:13;16.20;99.90
27707;DHT22;36332;51.384;0.040;2022-09-09T05:56:47;16.20;99.90
27707;DHT22;36332;51.384;0.040;2022-09-09T05:59:19;16.70;99.90
27707;DHT22;36332;51.384;0.040;2022-09-09T06:01:46;16.50;99.90
27707;DHT22;36332;51.384;0.040;2022-09-09T06:04:23;16.50;99.90
27707;DHT22;36332;51.384;0.040;2022-09-09T06:06:53;16.10;99.90
27707;DHT22;36332;51.384;0.040;2022-09-09T06:09:22;15.90;99.90
27707;DHT22;36332;51.384;0.040;2022-09-09T06:11:50;16.50;99.90
27707;DHT22;36332;51.384;0.040;2022-09-09T06:14:19;16.30;99.90
27707;DHT22;36332;51.384;0.040;2022-09-09T06:16:48;16.60;99.90
27707;DHT22;36332;51.384;0.040;2022-09-09T06:19:20;16.30;99.90
27707;DHT22;36332;51.384;0.040;2022-09-09T06:21:48;16.20;99.90
27707;DHT22;36332;51.384;0.040;2022-09-09T06:24:17;16.30;99.90
27707;DHT22;36332;51.384;0.040;2022-09-09T06:26:46;16.30;99.90
27707;DHT22;36332;51.384;0.040;2022-09-09T06:29:20;16.30;99.90
27707;DHT22;36332;51.384;0.040;2022-09-09T06:31:48;16.30;99.90
27707;DHT22;36332;51.384;0.040;2022-09-09T06:34:20;17.20;99.90
27707;DHT22;36332;51.384;0.040;2022-09-09T06:36:52;16.30;99.90
27707;DHT22;36332;51.384;0.040;2022-09-09T06:39:20;16.40;99.90
27707;DHT22;36332;51.384;0.040;2022-09-09T06:41:48;17.00;99.90
27707;DHT22;36332;51.384;0.040;2022-09-09T06:44:35;16.60;99.90
27707;DHT22;36332;51.384;0.040;2022-09-09T06:47:06;16.70;99.90
27707;DHT22;36332;51.384;0.040;2022-09-09T06:49:34;16.40;99.90
27707;DHT22;36332;51.384;0.040;2022-09-09T06:52:06;16.40;99.90
27707;DHT22;36332;51.384;0.040;2022-09-09T06:54:34;16.50;99.90
27707;DHT22;36332;51.384;0.040;2022-09-09T06:57:05;16.60;99.90
27707;DHT22;36332;51.384;0.040;2022-09-09T06:59:55;16.90;99.90
27707;DHT22;36332;51.384;0.040;2022-09-09T07:02:23;16.80;99.90
27707;DHT22;36332;51.384;0.040;2022-09-09T07:04:51;17.40;99.90
27707;DHT22;36332;51.384;0.040;2022-09-09T07:07:19;16.80;99.90
27707;DHT22;36332;51.384;0.040;2022-09-09T07:09:48;17.00;99.90
27707;DHT22;36332;51.384;0.040;2022-09-09T07:12:16;16.80;99.90
27707;DHT22;36332;51.384;0.040;2022-09-09T07:14:52;16.90;99.90
27707;DHT22;36332;51.384;0.040;2022-09-09T07:17:20;16.80;99.90
27707;DHT22;36332;51.384;0.040;2022-09-09T07:19:48;17.00;99.90
27707;DHT22;36332;51.384;0.040;2022-09-09T07:22:17;17.00;99.90
27707;DHT22;36332;51.384;0.040;2022-09-09T07:24:46;16.80;99.90
27707;DHT22;36332;51.384;0.040;2022-09-09T07:27:14;16.90;99.90
27707;DHT22;36332;51.384;0.040;2022-09-09T07:29:42;16.80;99.90
27707;DHT22;36332;51.384;0.040;2022-09-09T07:32:10;16.80;99.90
27707;DHT22;36332;51.384;0.040;2022-09-09T07:34:38;16.20;99.90
27707;DHT22;36332;51.384;0.040;2022-09-09T07:37:06;16.70;99.90
27707;DHT22;36332;51.384;0.040;2022-09-09T07:39:35;17.30;99.90
27707;DHT22;36332;51.384;0.040;2022-09-09T07:42:03;17.20;99.90
27707;DHT22;36332;51.384;0.040;2022-09-09T07:44:32;17.40;99.90
27707;DHT22;36332;51.384;0.040;2022-09-09T07:47:11;16.90;99.90
27707;DHT22;36332;51.384;0.040;2022-09-09T07:49:43;17.30;99.90
27707;DHT22;36332;51.384;0.040;2022-09-09T07:52:10;17.40;99.90
27707;DHT22;36332;51.384;0.040;2022-09-09T07:54:45;17.50;99.90
27707;DHT22;36332;51.384;0.040;2022-09-09T07:57:14;17.60;99.90
27707;DHT22;36332;51.384;0.040;2022-09-09T07:59:42;17.30;99.90
27707;DHT22;36332;51.384;0.040;2022-09-09T08:02:12;17.10;99.90
27707;DHT22;36332;51.384;0.040;2022-09-09T08:04:40;17.70;99.90
27707;DHT22;36332;51.384;0.040;2022-09-09T08:07:07;17.20;99.90
27707;DHT22;36332;51.384;0.040;2022-09-09T08:09:42;17.40;99.90
27707;DHT22;36332;51.384;0.040;2022-09-09T08:12:17;17.30;99.90
27707;DHT22;36332;51.384;0.040;2022-09-09T08:14:45;17.90;99.90
27707;DHT22;36332;51.384;0.040;2022-09-09T08:17:13;17.10;99.90
27707;DHT22;36332;51.384;0.040;2022-09-09T08:19:42;17.40;99.90
27707;DHT22;36332;51.384;0.040;2022-09-09T08:22:14;15.50;99.90
27707;DHT22;36332;51.384;0.040;2022-09-09T08:24:42;17.50;99.90
27707;DHT22;36332;51.384;0.040;2022-09-09T08:27:09;17.60;99.90
27707;DHT22;36332;51.384;0.040;2022-09-09T08:29:38;17.70;99.90
27707;DHT22;36332;51.384;0.040;2022-09-09T08:32:06;17.70;99.90
27707;DHT22;36332;51.384;0.040;2022-09-09T08:34:35;17.80;99.90
27707;DHT22;36332;51.384;0.040;2022-09-09T08:37:11;17.80;99.90
27707;DHT22;36332;51.384;0.040;2022-09-09T08:39:40;17.80;99.90
27707;DHT22;36332;51.384;0.040;2022-09-09T08:45:09;17.70;99.90
27707;DHT22;36332;51.384;0.040;2022-09-09T08:50:45;18.30;99.90
27707;DHT22;36332;51.384;0.040;2022-09-09T08:53:23;17.60;99.90
27707;DHT22;36332;51.384;0.040;2022-09-09T08:55:59;18.70;99.90
27707;DHT22;36332;51.384;0.040;2022-09-09T08:58:54;18.70;99.90
27707;DHT22;36332;51.384;0.040;2022-09-09T09:04:53;18.90;99.90
27707;DHT22;36332;51.384;0.040;2022-09-09T09:07:32;19.10;99.90
27707;DHT22;36332;51.384;0.040;2022-09-09T09:10:29;18.80;99.90
27707;DHT22;36332;51.384;0.040;2022-09-09T09:13:35;18.90;99.90
27707;DHT22;36332;51.384;0.040;2022-09-09T09:18:51;18.40;99.90
27707;DHT22;36332;51.384;0.040;2022-09-09T09:21:41;18.40;99.90
27707;DHT22;36332;51.384;0.040;2022-09-09T09:24:51;18.40;99.90
27707;DHT22;36332;51.384;0.040;2022-09-09T09:30:18;18.10;99.90
27707;DHT22;36332;51.384;0.040;2022-09-09T09:35:51;18.40;99.90
27707;DHT22;36332;51.384;0.040;2022-09-09T09:38:23;18.10;99.90
27707;DHT22;36332;51.384;0.040;2022-09-09T09:41:12;18.10;99.90
27707;DHT22;36332;51.384;0.040;2022-09-09T09:43:41;18.50;99.90
27707;DHT22;36332;51.384;0.040;2022-09-09T09:46:20;17.90;99.90
27707;DHT22;36332;51.384;0.040;2022-09-09T09:49:00;18.60;99.90
27707;DHT22;36332;51.384;0.040;2022-09-09T09:51:30;18.50;99.90
27707;DHT22;36332;51.384;0.040;2022-09-09T09:56:43;19.00;99.90
27707;DHT22;36332;51.384;0.040;2022-09-09T09:59:36;19.20;99.90
27707;DHT22;36332;51.384;0.040;2022-09-09T10:02:22;19.40;99.90
27707;DHT22;36332;51.384;0.040;2022-09-09T10:05:14;19.60;99.90
27707;DHT22;36332;51.384;0.040;2022-09-09T10:10:26;19.50;99.90
27707;DHT22;36332;51.384;0.040;2022-09-09T10:13:08;19.60;99.90
27707;DHT22;36332;51.384;0.040;2022-09-09T10:24:03;19.60;99.90
27707;DHT22;36332;51.384;0.040;2022-09-09T10:34:56;19.40;99.90
27707;DHT22;36332;51.384;0.040;2022-09-09T10:42:42;19.90;99.90
27707;DHT22;36332;51.384;0.040;2022-09-09T10:45:18;19.50;99.90
27707;DHT22;36332;51.384;0.040;2022-09-09T10:50:54;19.70;99.90
27707;DHT22;36332;51.384;0.040;2022-09-09T10:56:07;19.50;99.90
27707;DHT22;36332;51.384;0.040;2022-09-09T10:58:40;19.60;99.90
27707;DHT22;36332;51.384;0.040;2022-09-09T11:01:44;19.80;99.90
27707;DHT22;36332;51.384;0.040;2022-09-09T11:04:27;19.80;99.90
27707;DHT22;36332;51.384;0.040;2022-09-09T11:07:07;19.80;99.90
27707;DHT22;36332;51.384;0.040;2022-09-09T11:09:42;19.80;99.90
27707;DHT22;36332;51.384;0.040;2022-09-09T11:12:17;19.50;99.90
27707;DHT22;36332;51.384;0.040;2022-09-09T11:15:07;19.60;99.90
27707;DHT22;36332;51.384;0.040;2022-09-09T11:17:52;19.60;99.90
27707;DHT22;36332;51.384;0.040;2022-09-09T11:20:22;19.60;99.90
27707;DHT22;36332;51.384;0.040;2022-09-09T11:23:05;19.60;99.90
27707;DHT22;36332;51.384;0.040;2022-09-09T11:25:40;19.60;99.90
27707;DHT22;36332;51.384;0.040;2022-09-09T11:31:13;19.80;99.90
27707;DHT22;36332;51.384;0.040;2022-09-09T11:44:41;20.00;99.90
27707;DHT22;36332;51.384;0.040;2022-09-09T11:47:27;19.80;99.90
27707;DHT22;36332;51.384;0.040;2022-09-09T11:50:36;19.70;99.90
27707;DHT22;36332;51.384;0.040;2022-09-09T11:55:41;19.30;99.90
27707;DHT22;36332;51.384;0.040;2022-09-09T12:00:48;19.30;99.90
27707;DHT22;36332;51.384;0.040;2022-09-09T12:03:48;19.40;99.90
27707;DHT22;36332;51.384;0.040;2022-09-09T12:06:20;19.40;99.90
27707;DHT22;36332;51.384;0.040;2022-09-09T12:08:57;19.40;99.90
27707;DHT22;36332;51.384;0.040;2022-09-09T12:11:29;19.60;99.90
27707;DHT22;36332;51.384;0.040;2022-09-09T12:14:00;20.40;99.90
27707;DHT22;36332;51.384;0.040;2022-09-09T12:16:35;20.00;99.90
27707;DHT22;36332;51.384;0.040;2022-09-09T12:19:18;20.30;99.90
27707;DHT22;36332;51.384;0.040;2022-09-09T12:22:00;20.50;99.90
27707;DHT22;36332;51.384;0.040;2022-09-09T12:27:28;20.50;99.90
27707;DHT22;36332;51.384;0.040;2022-09-09T12:30:08;20.40;99.90
27707;DHT22;36332;51.384;0.040;2022-09-09T12:32:37;20.50;99.90
27707;DHT22;36332;51.384;0.040;2022-09-09T12:35:11;20.70;99.90
27707;DHT22;36332;51.384;0.040;2022-09-09T12:38:00;20.70;99.90
27707;DHT22;36332;51.384;0.040;2022-09-09T12:40:30;20.10;99.90
27707;DHT22;36332;51.384;0.040;2022-09-09T12:43:20;22.80;99.90
27707;DHT22;36332;51.384;0.040;2022-09-09T12:45:51;22.00;99.90
27707;DHT22;36332;51.384;0.040;2022-09-09T12:48:32;22.30;99.90
27707;DHT22;36332;51.384;0.040;2022-09-09T12:51:01;23.20;99.90
27707;DHT22;36332;51.384;0.040;2022-09-09T12:56:06;23.90;99.90
27707;DHT22;36332;51.384;0.040;2022-09-09T12:58:38;24.10;99.90
27707;DHT22;36332;51.384;0.040;2022-09-09T13:01:37;24.00;99.90
27707;DHT22;36332;51.384;0.040;2022-09-09T13:04:22;23.60;99.90
27707;DHT22;36332;51.384;0.040;2022-09-09T13:09:19;22.70;99.90
27707;DHT22;36332;51.384;0.040;2022-09-09T13:11:52;22.40;99.90
27707;DHT22;36332;51.384;0.040;2022-09-09T13:14:32;22.00;99.90
27707;DHT22;36332;51.384;0.040;2022-09-09T13:17:03;22.00;99.90
27707;DHT22;36332;51.384;0.040;2022-09-09T13:19:38;22.20;99.90
27707;DHT22;36332;51.384;0.040;2022-09-09T13:22:34;22.80;99.90
27707;DHT22;36332;51.384;0.040;2022-09-09T13:25:05;23.10;99.90
27707;DHT22;36332;51.384;0.040;2022-09-09T13:27:36;23.20;99.90
27707;DHT22;36332;51.384;0.040;2022-09-09T13:35:32;24.40;99.90
27707;DHT22;36332;51.384;0.040;2022-09-09T13:38:08;24.60;99.90
27707;DHT22;36332;51.384;0.040;2022-09-09T13:40:37;24.70;99.90
27707;DHT22;36332;51.384;0.040;2022-09-09T13:43:05;24.90;99.90
27707;DHT22;36332;51.384;0.040;2022-09-09T13:48:09;24.40;99.90
27707;DHT22;36332;51.384;0.040;2022-09-09T13:58:02;23.20;99.90
27707;DHT22;36332;51.384;0.040;2022-09-09T14:00:31;23.10;99.90
27707;DHT22;36332;51.384;0.040;2022-09-09T14:05:33;22.90;99.90
27707;DHT22;36332;51.384;0.040;2022-09-09T14:08:22;22.80;99.90
27707;DHT22;36332;51.384;0.040;2022-09-09T14:10:50;22.80;99.90
27707;DHT22;36332;51.384;0.040;2022-09-09T14:18:17;23.60;99.90
27707;DHT22;36332;51.384;0.040;2022-09-09T14:25:43;23.60;99.90
27707;DHT22;36332;51.384;0.040;2022-09-09T14:28:12;23.50;99.90
27707;DHT22;36332;51.384;0.040;2022-09-09T14:30:41;23.40;99.90
27707;DHT22;36332;51.384;0.040;2022-09-09T14:33:13;23.40;99.90
27707;DHT22;36332;51.384;0.040;2022-09-09T14:35:42;23.40;99.90
27707;DHT22;36332;51.384;0.040;2022-09-09T14:38:10;23.40;99.90
27707;DHT22;36332;51.384;0.040;2022-09-09T14:40:45;23.30;99.90
27707;DHT22;36332;51.384;0.040;2022-09-09T14:45:57;24.40;99.90
27707;DHT22;36332;51.384;0.040;2022-09-09T14:48:25;24.70;99.90
27707;DHT22;36332;51.384;0.040;2022-09-09T14:50:52;24.60;99.90
27707;DHT22;36332;51.384;0.040;2022-09-09T14:53:20;24.40;99.90
27707;DHT22;36332;51.384;0.040;2022-09-09T14:55:49;23.90;99.90
27707;DHT22;36332;51.384;0.040;2022-09-09T14:58:17;23.40;99.90
27707;DHT22;36332;51.384;0.040;2022-09-09T15:00:44;23.10;99.90
27707;DHT22;36332;51.384;0.040;2022-09-09T15:03:12;22.50;99.90
27707;DHT22;36332;51.384;0.040;2022-09-09T15:08:08;21.80;99.90
27707;DHT22;36332;51.384;0.040;2022-09-09T15:10:36;21.60;99.90
27707;DHT22;36332;51.384;0.040;2022-09-09T15:13:05;21.40;99.90
27707;DHT22;36332;51.384;0.040;2022-09-09T15:15:33;21.40;99.90
27707;DHT22;36332;51.384;0.040;2022-09-09T15:18:02;21.40;99.90
27707;DHT22;36332;51.384;0.040;2022-09-09T15:20:30;21.40;99.90
27707;DHT22;36332;51.384;0.040;2022-09-09T15:22:57;21.10;99.90
27707;DHT22;36332;51.384;0.040;2022-09-09T15:30:23;21.20;99.90
27707;DHT22;36332;51.384;0.040;2022-09-09T15:32:51;21.10;99.90
27707;DHT22;36332;51.384;0.040;2022-09-09T15:35:19;21.20;99.90
27707;DHT22;36332;51.384;0.040;2022-09-09T15:37:47;21.00;99.90
27707;DHT22;36332;51.384;0.040;2022-09-09T15:40:15;21.00;99.90
27707;DHT22;36332;51.384;0.040;2022-09-09T15:42:43;21.10;99.90
27707;DHT22;36332;51.384;0.040;2022-09-09T15:45:12;21.10;99.90
27707;DHT22;36332;51.384;0.040;2022-09-09T15:47:40;21.00;99.90
27707;DHT22;36332;51.384;0.040;2022-09-09T15:50:08;20.90;99.90
27707;DHT22;36332;51.384;0.040;2022-09-09T15:52:36;20.70;99.90
27707;DHT22;36332;51.384;0.040;2022-09-09T15:55:03;20.60;99.90
27707;DHT22;36332;51.384;0.040;2022-09-09T15:57:31;20.40;99.90
27707;DHT22;36332;51.384;0.040;2022-09-09T16:00:00;20.70;99.90
27707;DHT22;36332;51.384;0.040;2022-09-09T16:02:27;20.70;99.90
27707;DHT22;36332;51.384;0.040;2022-09-09T16:04:55;20.70;99.90
27707;DHT22;36332;51.384;0.040;2022-09-09T16:07:23;20.70;99.90
27707;DHT22;36332;51.384;0.040;2022-09-09T16:09:51;20.60;99.90
27707;DHT22;36332;51.384;0.040;2022-09-09T16:12:20;20.50;99.90
27707;DHT22;36332;51.384;0.040;2022-09-09T16:14:47;20.30;99.90
27707;DHT22;36332;51.384;0.040;2022-09-09T16:17:15;20.20;99.90
27707;DHT22;36332;51.384;0.040;2022-09-09T16:19:42;20.00;99.90
27707;DHT22;36332;51.384;0.040;2022-09-09T16:22:10;19.80;99.90
27707;DHT22;36332;51.384;0.040;2022-09-09T16:24:38;19.30;99.90
27707;DHT22;36332;51.384;0.040;2022-09-09T16:27:06;19.00;99.90
27707;DHT22;36332;51.384;0.040;2022-09-09T16:29:34;18.90;99.90
27707;DHT22;36332;51.384;0.040;2022-09-09T16:32:03;19.20;99.90
27707;DHT22;36332;51.384;0.040;2022-09-09T16:34:31;18.90;99.90
27707;DHT22;36332;51.384;0.040;2022-09-09T16:37:01;18.70;99.90
27707;DHT22;36332;51.384;0.040;2022-09-09T16:39:29;18.70;99.90
27707;DHT22;36332;51.384;0.040;2022-09-09T16:41:56;18.80;99.90
27707;DHT22;36332;51.384;0.040;2022-09-09T16:44:24;19.10;99.90
27707;DHT22;36332;51.384;0.040;2022-09-09T16:46:53;18.90;99.90
27707;DHT22;36332;51.384;0.040;2022-09-09T16:49:27;18.90;99.90
27707;DHT22;36332;51.384;0.040;2022-09-09T16:51:58;19.10;99.90
27707;DHT22;36332;51.384;0.040;2022-09-09T16:54:25;18.90;99.90
27707;DHT22;36332;51.384;0.040;2022-09-09T16:56:55;19.10;99.90
27707;DHT22;36332;51.384;0.040;2022-09-09T16:59:22;19.10;99.90
27707;DHT22;36332;51.384;0.040;2022-09-09T17:01:51;18.90;99.90
27707;DHT22;36332;51.384;0.040;2022-09-09T17:04:22;19.10;99.90
27707;DHT22;36332;51.384;0.040;2022-09-09T17:06:53;18.80;99.90
27707;DHT22;36332;51.384;0.040;2022-09-09T17:09:21;18.90;99.90
27707;DHT22;36332;51.384;0.040;2022-09-09T17:11:50;18.90;99.90
27707;DHT22;36332;51.384;0.040;2022-09-09T17:14:21;19.00;99.90
27707;DHT22;36332;51.384;0.040;2022-09-09T17:16:49;19.00;99.90
27707;DHT22;36332;51.384;0.040;2022-09-09T17:19:16;19.00;99.90
27707;DHT22;36332;51.384;0.040;2022-09-09T17:21:44;19.10;99.90
27707;DHT22;36332;51.384;0.040;2022-09-09T17:24:34;19.10;99.90
27707;DHT22;36332;51.384;0.040;2022-09-09T17:27:02;19.20;99.90
27707;DHT22;36332;51.384;0.040;2022-09-09T17:29:31;19.20;99.90
27707;DHT22;36332;51.384;0.040;2022-09-09T17:31:58;19.20;99.90
27707;DHT22;36332;51.384;0.040;2022-09-09T17:34:25;19.00;99.90
27707;DHT22;36332;51.384;0.040;2022-09-09T17:36:53;19.10;99.90
27707;DHT22;36332;51.384;0.040;2022-09-09T17:39:21;19.00;99.90
27707;DHT22;36332;51.384;0.040;2022-09-09T17:41:49;19.00;99.90
27707;DHT22;36332;51.384;0.040;2022-09-09T17:44:17;19.00;99.90
27707;DHT22;36332;51.384;0.040;2022-09-09T17:46:46;18.90;99.90
27707;DHT22;36332;51.384;0.040;2022-09-09T17:49:16;18.90;99.90
27707;DHT22;36332;51.384;0.040;2022-09-09T17:51:45;18.90;99.90
27707;DHT22;36332;51.384;0.040;2022-09-09T17:54:20;18.70;99.90
27707;DHT22;36332;51.384;0.040;2022-09-09T17:56:48;18.70;99.90
27707;DHT22;36332;51.384;0.040;2022-09-09T17:59:17;18.60;99.90
27707;DHT22;36332;51.384;0.040;2022-09-09T18:01:47;18.50;99.90
27707;DHT22;36332;51.384;0.040;2022-09-09T18:04:17;18.50;99.90
27707;DHT22;36332;51.384;0.040;2022-09-09T18:06:47;18.50;99.90
27707;DHT22;36332;51.384;0.040;2022-09-09T18:09:17;18.50;99.90
27707;DHT22;36332;51.384;0.040;2022-09-09T18:11:47;18.40;99.90
27707;DHT22;36332;51.384;0.040;2022-09-09T18:14:21;16.80;99.90
27707;DHT22;36332;51.384;0.040;2022-09-09T18:16:50;18.30;99.90
27707;DHT22;36332;51.384;0.040;2022-09-09T18:19:20;18.30;99.90
27707;DHT22;36332;51.384;0.040;2022-09-09T18:21:48;18.20;99.90
27707;DHT22;36332;51.384;0.040;2022-09-09T18:24:18;18.10;99.90
27707;DHT22;36332;51.384;0.040;2022-09-09T18:26:48;18.00;99.90
27707;DHT22;36332;51.384;0.040;2022-09-09T18:29:18;18.00;99.90
27707;DHT22;36332;51.384;0.040;2022-09-09T18:31:47;18.00;99.90
27707;DHT22;36332;51.384;0.040;2022-09-09T18:34:16;17.90;99.90
27707;DHT22;36332;51.384;0.040;2022-09-09T18:36:49;17.60;99.90
27707;DHT22;36332;51.384;0.040;2022-09-09T18:39:21;17.70;99.90
27707;DHT22;36332;51.384;0.040;2022-09-09T18:41:53;17.60;99.90
27707;DHT22;36332;51.384;0.040;2022-09-09T18:44:23;17.60;99.90
27707;DHT22;36332;51.384;0.040;2022-09-09T18:46:53;17.60;99.90
27707;DHT22;36332;51.384;0.040;2022-09-09T18:49:21;17.50;99.90
27707;DHT22;36332;51.384;0.040;2022-09-09T18:51:49;17.40;99.90
27707;DHT22;36332;51.384;0.040;2022-09-09T18:54:22;17.40;99.90
27707;DHT22;36332;51.384;0.040;2022-09-09T18:56:50;17.40;99.90
27707;DHT22;36332;51.384;0.040;2022-09-09T18:59:20;17.40;99.90
27707;DHT22;36332;51.384;0.040;2022-09-09T19:01:49;17.40;99.90
27707;DHT22;36332;51.384;0.040;2022-09-09T19:04:18;17.40;99.90
27707;DHT22;36332;51.384;0.040;2022-09-09T19:06:47;17.30;99.90
27707;DHT22;36332;51.384;0.040;2022-09-09T19:09:17;17.30;99.90